Wednesday, November 26, 2014, 5:48 AM EST

KOXB, Ocean City Municipal Airport

Location: Berlin, MD, United States Lat: 38.317
Local Time: 5:48 AM EST (10:48 GMT) Lon: -75.117
Time Zone: US/Eastern Elev: 13 ft

Show me the last for .
Show Decoded

2014-11-26 04:53 METAR KOXB 260953Z AUTO 06014G22KT 4SM RA FEW017 BKN041 OVC055 08/05 A3005 RMK
                 AO2 SLP175 P0000 T00780050 TSNO =
2014-11-26 03:53 METAR KOXB 260853Z AUTO 06012KT 7SM -RA FEW039 OVC050 09/05 A3006 RMK AO2 SLP178
                 P0001 60001 T00890050 58026 TSNO =
2014-11-26 02:53 METAR KOXB 260753Z AUTO 06010KT 10SM -RA OVC050 10/05 A3009 RMK AO2 RAE30B47
                 SLP190 P0000 T01000050 TSNO =
2014-11-26 01:53 METAR KOXB 260653Z AUTO 03007KT 10SM -RA BKN075 OVC095 09/05 A3011 RMK AO2
                 SLP196 P0000 T00940050 TSNO =
2014-11-26 00:53 METAR KOXB 260553Z AUTO 04004KT 10SM -RA BKN075 OVC090 09/06 A3014 RMK AO2
                 SLP204 P0000 60000 T00940056 10106 20089 58011 TSNO =
2014-11-25 23:53 METAR KOXB 260453Z AUTO 02005KT 10SM -RA FEW075 OVC090 10/06 A3014 RMK AO2 RAB32
                 SLP207 P0000 T01000061 401780089 TSNO =
2014-11-25 22:53 METAR KOXB 260353Z AUTO 00000KT 10SM BKN075 BKN095 OVC120 09/06 A3017 RMK AO2
                 SLP214 T00890061 TSNO =
2014-11-25 21:53 METAR KOXB 260253Z AUTO 00000KT 10SM BKN075 09/06 A3017 RMK AO2 SLP215 T00890061
                 53018 TSNO =
2014-11-25 20:53 METAR KOXB 260153Z AUTO 00000KT 10SM CLR 09/06 A3012 RMK AO2 SLP199 T00890056
                 TSNO =
2014-11-25 19:53 METAR KOXB 260053Z AUTO 03003KT 10SM FEW120 09/05 A3011 RMK AO2 SLP196 T00940050
                 TSNO =
2014-11-25 18:53 METAR KOXB 252353Z AUTO 01003KT 10SM CLR 11/03 A3011 RMK AO2 SLP197 T01060033
                 10144 20106 53016 TSNO =
2014-11-25 17:53 METAR KOXB 252253Z AUTO 04003KT 10SM FEW080 11/03 A3010 RMK AO2 PRESRR SLP192
                 T01110033 TSNO =
2014-11-25 16:53 METAR KOXB 252153Z AUTO 04005KT 10SM FEW036 SCT075 BKN120 11/05 A3007 RMK AO2
                 SLP183 T01110050 TSNO =
2014-11-25 15:53 METAR KOXB 252053Z AUTO 03005KT 10SM BKN033 OVC047 12/04 A3007 RMK AO2 SLP181
                 T01220039 53014 TSNO =
2014-11-25 14:53 METAR KOXB 251953Z AUTO 01005KT 10SM OVC030 13/02 A3004 RMK AO2 SLP172 T01330022
                 TSNO =
2014-11-25 14:38 METAR KOXB 251938Z AUTO 36006KT 10SM BKN030 BKN045 13/03 A3004 RMK AO2 T01330028
                 TSNO =
2014-11-25 14:28 METAR KOXB 251928Z AUTO 35006KT 10SM BKN028 BKN044 13/02 A3004 RMK AO2 T01330022
                 TSNO =
2014-11-25 14:18 METAR KOXB 251918Z AUTO 35006KT 10SM SCT028 BKN046 13/02 A3004 RMK AO2 T01330022
                 TSNO =
2014-11-25 14:08 METAR KOXB 251908Z AUTO 01007KT 10SM BKN027 13/02 A3002 RMK AO2 T01330022 TSNO =
2014-11-25 13:53 METAR KOXB 251853Z AUTO 35011KT 10SM FEW027 13/03 A3002 RMK AO2 SLP164 T01330028
                 TSNO =
2014-11-25 13:02 METAR KOXB 251802Z AUTO 01008KT 10SM FEW022 OVC044 14/04 A3001 RMK AO2 PRESFR
                 T01390039 TSNO =
2014-11-25 12:53 METAR KOXB 251753Z AUTO 01008KT 10SM BKN022 OVC044 14/04 A3003 RMK AO2 SLP167
                 T01440044 10167 20133 56001 TSNO =
2014-11-25 11:53 METAR KOXB 251653Z AUTO 36006KT 10SM OVC020 14/07 A3003 RMK AO2 SLP169 T01440067
                 TSNO =
2014-11-25 10:53 METAR KOXB 251553Z AUTO 06007KT 10SM OVC016 14/07 A3002 RMK AO2 SLP165 T01390072
                 TSNO =
2014-11-25 09:53 METAR KOXB 251453Z AUTO 19003KT 10SM OVC011 16/13 A3003 RMK AO2 SLP168 T01560133
                 53031 TSNO =
2014-11-25 09:35 METAR KOXB 251435Z AUTO 24004KT 10SM BKN013 BKN018 BKN025 16/13 A3002 RMK AO2
                 T01560133 TSNO =
2014-11-25 09:21 METAR KOXB 251421Z AUTO 32004KT 9SM SCT017 BKN025 14/12 A3002 RMK AO2 PRESRR
                 T01440122 TSNO =
2014-11-25 07:53 METAR KOXB 251253Z AUTO 21004KT 6SM BR CLR 13/12 A2997 RMK AO2 SLP147 T01330122
                 TSNO =
2014-11-25 06:53 METAR KOXB 251153Z AUTO 23006KT 10SM SCT110 17/14 A2994 RMK AO2 SLP137 60000
                 T01670144 10178 20144 51019 TSNO =
2014-11-25 05:53 METAR KOXB 251053Z AUTO 24008KT 10SM SCT110 17/14 A2992 RMK AO2 RAB05E29 SLP131
                 P0000 T01670144 TSNO =

Support USWX by starting your Amazon purchase here.